Aérodrome :
LOGIN :

S'inscrire | Disclaimer

   EN    FR    IT 

 










Légende :    VFR   VFR Marginal   IFR   IFR Intensif   IFR Très Intensif
Visi : 
Plafond : 
>= 8 km
>= 3000ft
5 à 8 km
1000 à 3000 ft
1500m à 5 km
500 à 1000 ft
800 à 1500m
200 à 500 ft
< 800m
< 200 ft
Symboles :   Orages  Brouillard  Fortes neiges  Fortes précipitations  Vent > 20 kt
SIGMETs :   Divers  Orages  Givrage  Turbulence  Onde Orograph.  Cendres Volcan.







- Altitude de l'aérodrome : 160 ft
- Code IATA : LRT
- Voir les cartes d'approche


LFRH - Lorient Lann Bihoue

DERNIER METAR :
  • 251830Z AUTO 04007KT 020V080 9999 FEW026 18/16 Q1015 TEMPO 26010KT SHRA TS FEW025CB

METARs EXPIRÉS :
  • 251800Z AUTO 08007KT 040V110 9999 -RA FEW024 BKN033 BKN042 18/16 Q1015 TEMPO TS FEW025CB BECMG 26010KT
  • 251730Z AUTO 04007KT 320V070 9999 BKN026 BKN048 BKN056 21/15 Q1015 TEMPO TS FEW025CB BECMG 26010KT
  • 251700Z AUTO VRB03KT 9999 FEW025 BKN048 BKN054 21/14 Q1015 TEMPO TSRA SCT020CB
  • 251630Z AUTO 27005KT 230V290 9999 FEW029/// SCT047/// ///CB 21/15 Q1015 TEMPO TSRA BECMG 05010KT
  • 251600Z AUTO 26005KT 220V290 9999 VCTS ///CB 21/15 Q1015 BECMG 05010KT

TAF AMD TAF LFRH
Valide du 25 à 18h jusqu'au 26 à 18h UTC


251800Z 2518/2618 26010KT 9999 SCT030
TEMPO 2518/2520 SHRA TS FEW025CB
BECMG 2520/2522 05010KT CAVOK
TEMPO 2604/2610 4000 BR BKN005 OVC008
TEMPO 2608/2614 4000 SHRA BKN015TCU
PROB30
TEMPO 2614/2618 2000 TSRA SCT020CB
BECMG 2612/2614 15010KT
Pas de NOTAMs connus pour ce terrain.
1 SIGMET publié pour la FIR Brest (LFRR) :
 
Orages noyés dans la masse
LFRR SIGMET 9 VALID 251700/251900 LFPW
LFRR BREST FIR/UIR EMBD TS OBS WI N4915 W00015 - N4815 W00015 - N4800 W00130 - N4845 W00130 - N4915 W00015 TOP FL390 STNR NC=



MET'MAP, la Météo Aéronautique d'un coup d'oeil ! - Copyright ORBIFLY Décembre 2007 - Disclaimer

ORBIFLY MET'MAP TEAM :

Programmation & Développement : Alexandra Zaïnal
Conception & Développement : Baudouin d'Aumeries
Co-Programmation & Développement : Marc-Olivier Méhu
Soutien technique & logistique : Manuel Goepfert

Contact : metmap@orbifly.com




SOURCES & CREDITS :

   NOAA